sensor_id;sensor_type;location;lat;lon;timestamp;P1;durP1;ratioP1;P2;durP2;ratioP2
60169;SDS011;46042;49.444;6.862;2023-12-20T00:01:06;10.90;;;4.55;;
60169;SDS011;46042;49.444;6.862;2023-12-20T00:03:33;10.35;;;4.13;;
60169;SDS011;46042;49.444;6.862;2023-12-20T00:06:08;10.25;;;4.35;;
60169;SDS011;46042;49.444;6.862;2023-12-20T00:08:35;9.98;;;3.65;;
60169;SDS011;46042;49.444;6.862;2023-12-20T00:11:02;6.15;;;3.25;;
60169;SDS011;46042;49.444;6.862;2023-12-20T00:13:29;9.55;;;3.25;;
60169;SDS011;46042;49.444;6.862;2023-12-20T00:15:55;6.85;;;3.65;;
60169;SDS011;46042;49.444;6.862;2023-12-20T00:18:23;5.05;;;2.75;;
60169;SDS011;46042;49.444;6.862;2023-12-20T00:20:49;5.18;;;2.70;;
60169;SDS011;46042;49.444;6.862;2023-12-20T00:23:17;4.18;;;2.53;;
60169;SDS011;46042;49.444;6.862;2023-12-20T00:25:43;6.13;;;3.17;;
60169;SDS011;46042;49.444;6.862;2023-12-20T00:28:10;7.78;;;3.80;;
60169;SDS011;46042;49.444;6.862;2023-12-20T00:30:37;7.75;;;3.92;;
60169;SDS011;46042;49.444;6.862;2023-12-20T00:33:04;6.95;;;3.30;;
60169;SDS011;46042;49.444;6.862;2023-12-20T00:35:30;8.60;;;4.30;;
60169;SDS011;46042;49.444;6.862;2023-12-20T00:37:58;24.92;;;13.57;;
60169;SDS011;46042;49.444;6.862;2023-12-20T00:40:25;18.25;;;6.22;;
60169;SDS011;46042;49.444;6.862;2023-12-20T00:42:52;30.20;;;15.02;;
60169;SDS011;46042;49.444;6.862;2023-12-20T00:45:19;12.60;;;7.93;;
60169;SDS011;46042;49.444;6.862;2023-12-20T00:47:45;10.05;;;6.35;;
60169;SDS011;46042;49.444;6.862;2023-12-20T00:50:13;9.85;;;5.05;;
60169;SDS011;46042;49.444;6.862;2023-12-20T00:52:39;7.05;;;3.75;;
60169;SDS011;46042;49.444;6.862;2023-12-20T00:55:06;6.60;;;4.00;;
60169;SDS011;46042;49.444;6.862;2023-12-20T00:57:34;6.93;;;3.75;;
60169;SDS011;46042;49.444;6.862;2023-12-20T01:00:01;8.20;;;4.15;;
60169;SDS011;46042;49.444;6.862;2023-12-20T01:02:28;5.97;;;3.10;;
60169;SDS011;46042;49.444;6.862;2023-12-20T01:04:55;7.38;;;3.58;;
60169;SDS011;46042;49.444;6.862;2023-12-20T01:07:22;7.28;;;3.65;;
60169;SDS011;46042;49.444;6.862;2023-12-20T01:09:49;5.22;;;2.80;;
60169;SDS011;46042;49.444;6.862;2023-12-20T01:12:15;6.43;;;3.33;;
60169;SDS011;46042;49.444;6.862;2023-12-20T01:14:42;5.38;;;3.03;;
60169;SDS011;46042;49.444;6.862;2023-12-20T01:17:08;6.10;;;3.50;;
60169;SDS011;46042;49.444;6.862;2023-12-20T01:19:35;7.57;;;3.70;;
60169;SDS011;46042;49.444;6.862;2023-12-20T01:22:03;7.43;;;3.22;;
60169;SDS011;46042;49.444;6.862;2023-12-20T01:24:30;8.45;;;3.85;;
60169;SDS011;46042;49.444;6.862;2023-12-20T01:26:56;8.93;;;3.72;;
60169;SDS011;46042;49.444;6.862;2023-12-20T01:29:23;5.93;;;3.20;;
60169;SDS011;46042;49.444;6.862;2023-12-20T01:31:50;7.45;;;3.53;;
60169;SDS011;46042;49.444;6.862;2023-12-20T01:34:17;5.70;;;2.97;;
60169;SDS011;46042;49.444;6.862;2023-12-20T01:36:44;8.57;;;3.90;;
60169;SDS011;46042;49.444;6.862;2023-12-20T01:39:11;10.00;;;3.20;;
60169;SDS011;46042;49.444;6.862;2023-12-20T01:41:52;5.20;;;2.72;;
60169;SDS011;46042;49.444;6.862;2023-12-20T01:44:19;7.90;;;2.83;;
60169;SDS011;46042;49.444;6.862;2023-12-20T01:46:46;4.93;;;2.90;;
60169;SDS011;46042;49.444;6.862;2023-12-20T01:49:14;6.65;;;3.35;;
60169;SDS011;46042;49.444;6.862;2023-12-20T01:51:41;4.38;;;3.03;;
60169;SDS011;46042;49.444;6.862;2023-12-20T01:54:08;5.40;;;2.92;;
60169;SDS011;46042;49.444;6.862;2023-12-20T01:56:35;6.70;;;3.30;;
60169;SDS011;46042;49.444;6.862;2023-12-20T01:59:02;5.68;;;2.88;;
60169;SDS011;46042;49.444;6.862;2023-12-20T02:01:30;7.63;;;2.83;;
60169;SDS011;46042;49.444;6.862;2023-12-20T02:03:58;12.40;;;3.85;;
60169;SDS011;46042;49.444;6.862;2023-12-20T02:06:28;7.00;;;3.80;;
60169;SDS011;46042;49.444;6.862;2023-12-20T02:08:57;6.32;;;3.60;;
60169;SDS011;46042;49.444;6.862;2023-12-20T02:11:25;4.70;;;3.17;;
60169;SDS011;46042;49.444;6.862;2023-12-20T02:13:53;5.32;;;2.90;;
60169;SDS011;46042;49.444;6.862;2023-12-20T02:16:20;5.40;;;2.95;;
60169;SDS011;46042;49.444;6.862;2023-12-20T02:18:48;6.00;;;3.38;;
60169;SDS011;46042;49.444;6.862;2023-12-20T02:21:15;5.72;;;3.28;;
60169;SDS011;46042;49.444;6.862;2023-12-20T02:23:42;5.40;;;3.05;;
60169;SDS011;46042;49.444;6.862;2023-12-20T02:26:08;6.18;;;3.63;;
60169;SDS011;46042;49.444;6.862;2023-12-20T02:28:35;7.50;;;4.10;;
60169;SDS011;46042;49.444;6.862;2023-12-20T02:31:02;10.23;;;4.82;;
60169;SDS011;46042;49.444;6.862;2023-12-20T02:33:29;8.52;;;4.45;;
60169;SDS011;46042;49.444;6.862;2023-12-20T02:35:56;7.40;;;4.38;;
60169;SDS011;46042;49.444;6.862;2023-12-20T02:38:23;7.85;;;4.72;;
60169;SDS011;46042;49.444;6.862;2023-12-20T02:40:49;9.32;;;5.97;;
60169;SDS011;46042;49.444;6.862;2023-12-20T02:43:16;7.55;;;4.68;;
60169;SDS011;46042;49.444;6.862;2023-12-20T02:45:43;8.18;;;4.65;;
60169;SDS011;46042;49.444;6.862;2023-12-20T02:48:10;6.95;;;4.13;;
60169;SDS011;46042;49.444;6.862;2023-12-20T02:50:36;6.70;;;4.65;;
60169;SDS011;46042;49.444;6.862;2023-12-20T02:53:03;8.25;;;4.90;;
60169;SDS011;46042;49.444;6.862;2023-12-20T02:55:30;7.93;;;4.65;;
60169;SDS011;46042;49.444;6.862;2023-12-20T02:57:57;7.60;;;3.65;;
60169;SDS011;46042;49.444;6.862;2023-12-20T03:00:24;6.68;;;3.85;;
60169;SDS011;46042;49.444;6.862;2023-12-20T03:02:51;7.15;;;4.55;;
60169;SDS011;46042;49.444;6.862;2023-12-20T03:05:17;10.50;;;5.47;;
60169;SDS011;46042;49.444;6.862;2023-12-20T03:07:44;14.50;;;6.07;;
60169;SDS011;46042;49.444;6.862;2023-12-20T03:10:12;9.60;;;4.70;;
60169;SDS011;46042;49.444;6.862;2023-12-20T03:12:49;12.85;;;4.65;;
60169;SDS011;46042;49.444;6.862;2023-12-20T03:15:16;8.68;;;3.97;;
60169;SDS011;46042;49.444;6.862;2023-12-20T03:17:43;7.82;;;4.07;;
60169;SDS011;46042;49.444;6.862;2023-12-20T03:20:10;10.13;;;3.88;;
60169;SDS011;46042;49.444;6.862;2023-12-20T03:22:37;8.18;;;3.63;;
60169;SDS011;46042;49.444;6.862;2023-12-20T03:25:04;6.70;;;3.40;;
60169;SDS011;46042;49.444;6.862;2023-12-20T03:27:31;6.63;;;3.67;;
60169;SDS011;46042;49.444;6.862;2023-12-20T03:29:58;5.40;;;3.50;;
60169;SDS011;46042;49.444;6.862;2023-12-20T03:32:24;5.10;;;3.30;;
60169;SDS011;46042;49.444;6.862;2023-12-20T03:34:51;6.60;;;3.42;;
60169;SDS011;46042;49.444;6.862;2023-12-20T03:37:18;7.03;;;3.30;;
60169;SDS011;46042;49.444;6.862;2023-12-20T03:39:45;9.45;;;3.65;;
60169;SDS011;46042;49.444;6.862;2023-12-20T03:42:11;4.80;;;3.03;;
60169;SDS011;46042;49.444;6.862;2023-12-20T03:44:39;6.00;;;3.67;;
60169;SDS011;46042;49.444;6.862;2023-12-20T03:47:08;6.97;;;3.60;;
60169;SDS011;46042;49.444;6.862;2023-12-20T03:49:35;4.72;;;3.22;;
60169;SDS011;46042;49.444;6.862;2023-12-20T03:52:04;5.65;;;2.90;;
60169;SDS011;46042;49.444;6.862;2023-12-20T03:54:34;4.18;;;2.58;;
60169;SDS011;46042;49.444;6.862;2023-12-20T03:57:02;5.63;;;3.17;;
60169;SDS011;46042;49.444;6.862;2023-12-20T03:59:28;4.63;;;2.75;;
60169;SDS011;46042;49.444;6.862;2023-12-20T04:01:55;5.47;;;2.83;;
60169;SDS011;46042;49.444;6.862;2023-12-20T04:04:22;6.32;;;2.75;;
60169;SDS011;46042;49.444;6.862;2023-12-20T04:06:49;7.32;;;3.00;;
60169;SDS011;46042;49.444;6.862;2023-12-20T04:09:16;4.93;;;2.88;;
60169;SDS011;46042;49.444;6.862;2023-12-20T04:11:42;13.88;;;3.45;;
60169;SDS011;46042;49.444;6.862;2023-12-20T04:14:09;5.85;;;2.80;;
60169;SDS011;46042;49.444;6.862;2023-12-20T04:16:36;3.15;;;1.85;;
60169;SDS011;46042;49.444;6.862;2023-12-20T04:19:03;6.15;;;2.25;;
60169;SDS011;46042;49.444;6.862;2023-12-20T04:21:30;4.18;;;2.05;;
60169;SDS011;46042;49.444;6.862;2023-12-20T04:23:57;2.75;;;1.73;;
60169;SDS011;46042;49.444;6.862;2023-12-20T04:26:24;3.70;;;1.70;;
60169;SDS011;46042;49.444;6.862;2023-12-20T04:28:51;5.70;;;1.95;;
60169;SDS011;46042;49.444;6.862;2023-12-20T04:31:20;5.63;;;1.90;;
60169;SDS011;46042;49.444;6.862;2023-12-20T04:33:47;4.30;;;1.95;;
60169;SDS011;46042;49.444;6.862;2023-12-20T04:36:14;8.90;;;2.30;;
60169;SDS011;46042;49.444;6.862;2023-12-20T04:38:40;15.20;;;2.70;;
60169;SDS011;46042;49.444;6.862;2023-12-20T04:41:07;5.68;;;1.63;;
60169;SDS011;46042;49.444;6.862;2023-12-20T04:43:34;7.90;;;2.13;;
60169;SDS011;46042;49.444;6.862;2023-12-20T04:46:00;5.15;;;1.70;;
60169;SDS011;46042;49.444;6.862;2023-12-20T04:48:27;5.82;;;2.00;;
60169;SDS011;46042;49.444;6.862;2023-12-20T04:50:54;10.45;;;1.30;;
60169;SDS011;46042;49.444;6.862;2023-12-20T04:53:20;4.68;;;1.50;;
60169;SDS011;46042;49.444;6.862;2023-12-20T04:55:47;5.40;;;1.67;;
60169;SDS011;46042;49.444;6.862;2023-12-20T04:58:14;4.32;;;1.58;;
60169;SDS011;46042;49.444;6.862;2023-12-20T05:00:40;7.95;;;1.55;;
60169;SDS011;46042;49.444;6.862;2023-12-20T05:03:07;3.33;;;1.42;;
60169;SDS011;46042;49.444;6.862;2023-12-20T05:05:34;2.50;;;1.40;;
60169;SDS011;46042;49.444;6.862;2023-12-20T05:08:01;4.85;;;1.48;;
60169;SDS011;46042;49.444;6.862;2023-12-20T05:10:28;9.02;;;1.65;;
60169;SDS011;46042;49.444;6.862;2023-12-20T05:12:54;5.82;;;1.80;;
60169;SDS011;46042;49.444;6.862;2023-12-20T05:15:21;8.77;;;2.92;;
60169;SDS011;46042;49.444;6.862;2023-12-20T05:17:47;5.85;;;2.72;;
60169;SDS011;46042;49.444;6.862;2023-12-20T05:20:15;7.43;;;2.75;;
60169;SDS011;46042;49.444;6.862;2023-12-20T05:22:42;5.93;;;2.65;;
60169;SDS011;46042;49.444;6.862;2023-12-20T05:25:08;8.60;;;2.83;;
60169;SDS011;46042;49.444;6.862;2023-12-20T05:27:35;10.30;;;2.97;;
60169;SDS011;46042;49.444;6.862;2023-12-20T05:30:02;8.57;;;3.10;;
60169;SDS011;46042;49.444;6.862;2023-12-20T05:32:31;5.82;;;2.95;;
60169;SDS011;46042;49.444;6.862;2023-12-20T05:34:57;9.50;;;3.30;;
60169;SDS011;46042;49.444;6.862;2023-12-20T05:37:24;8.68;;;3.00;;
60169;SDS011;46042;49.444;6.862;2023-12-20T05:39:51;10.95;;;2.60;;
60169;SDS011;46042;49.444;6.862;2023-12-20T05:42:17;9.73;;;2.17;;
60169;SDS011;46042;49.444;6.862;2023-12-20T05:44:44;7.47;;;2.90;;
60169;SDS011;46042;49.444;6.862;2023-12-20T05:47:11;21.17;;;2.95;;
60169;SDS011;46042;49.444;6.862;2023-12-20T05:49:38;4.93;;;2.30;;
60169;SDS011;46042;49.444;6.862;2023-12-20T05:52:05;4.00;;;2.30;;
60169;SDS011;46042;49.444;6.862;2023-12-20T05:54:31;4.85;;;2.10;;
60169;SDS011;46042;49.444;6.862;2023-12-20T05:56:58;8.77;;;2.30;;
60169;SDS011;46042;49.444;6.862;2023-12-20T05:59:25;6.43;;;2.50;;
60169;SDS011;46042;49.444;6.862;2023-12-20T06:01:51;10.68;;;2.90;;
60169;SDS011;46042;49.444;6.862;2023-12-20T06:04:18;6.43;;;2.22;;
60169;SDS011;46042;49.444;6.862;2023-12-20T06:06:47;10.40;;;3.15;;
60169;SDS011;46042;49.444;6.862;2023-12-20T06:09:14;7.57;;;2.72;;
60169;SDS011;46042;49.444;6.862;2023-12-20T06:11:41;5.07;;;2.22;;
60169;SDS011;46042;49.444;6.862;2023-12-20T06:14:08;14.63;;;2.88;;
60169;SDS011;46042;49.444;6.862;2023-12-20T06:16:35;8.48;;;2.13;;
60169;SDS011;46042;49.444;6.862;2023-12-20T06:19:02;8.55;;;2.35;;
60169;SDS011;46042;49.444;6.862;2023-12-20T06:21:29;8.48;;;2.13;;
60169;SDS011;46042;49.444;6.862;2023-12-20T06:23:55;9.70;;;2.40;;
60169;SDS011;46042;49.444;6.862;2023-12-20T06:26:22;6.25;;;1.80;;
60169;SDS011;46042;49.444;6.862;2023-12-20T06:28:48;8.38;;;2.33;;
60169;SDS011;46042;49.444;6.862;2023-12-20T06:31:15;4.85;;;2.22;;
60169;SDS011;46042;49.444;6.862;2023-12-20T06:33:42;4.00;;;1.92;;
60169;SDS011;46042;49.444;6.862;2023-12-20T06:36:13;3.25;;;1.88;;
60169;SDS011;46042;49.444;6.862;2023-12-20T06:38:40;10.63;;;1.63;;
60169;SDS011;46042;49.444;6.862;2023-12-20T06:41:08;4.95;;;2.25;;
60169;SDS011;46042;49.444;6.862;2023-12-20T06:43:35;10.90;;;1.98;;
60169;SDS011;46042;49.444;6.862;2023-12-20T06:46:14;6.22;;;1.90;;
60169;SDS011;46042;49.444;6.862;2023-12-20T06:48:41;12.57;;;3.92;;
60169;SDS011;46042;49.444;6.862;2023-12-20T06:51:15;4.93;;;2.58;;
60169;SDS011;46042;49.444;6.862;2023-12-20T06:53:43;5.85;;;2.10;;
60169;SDS011;46042;49.444;6.862;2023-12-20T06:56:10;10.38;;;2.53;;
60169;SDS011;46042;49.444;6.862;2023-12-20T06:58:41;6.38;;;1.92;;
60169;SDS011;46042;49.444;6.862;2023-12-20T07:01:11;5.10;;;2.38;;
60169;SDS011;46042;49.444;6.862;2023-12-20T07:03:39;18.85;;;3.45;;
60169;SDS011;46042;49.444;6.862;2023-12-20T07:06:06;7.97;;;2.08;;
60169;SDS011;46042;49.444;6.862;2023-12-20T07:08:33;12.95;;;2.75;;
60169;SDS011;46042;49.444;6.862;2023-12-20T07:11:00;11.25;;;2.85;;
60169;SDS011;46042;49.444;6.862;2023-12-20T07:13:27;17.70;;;2.90;;
60169;SDS011;46042;49.444;6.862;2023-12-20T07:15:54;7.68;;;2.53;;
60169;SDS011;46042;49.444;6.862;2023-12-20T07:18:20;17.98;;;4.55;;
60169;SDS011;46042;49.444;6.862;2023-12-20T07:20:47;11.07;;;3.30;;
60169;SDS011;46042;49.444;6.862;2023-12-20T07:23:14;12.27;;;4.10;;
60169;SDS011;46042;49.444;6.862;2023-12-20T07:25:40;10.30;;;3.22;;
60169;SDS011;46042;49.444;6.862;2023-12-20T07:28:07;12.50;;;3.17;;
60169;SDS011;46042;49.444;6.862;2023-12-20T07:30:34;9.00;;;3.20;;
60169;SDS011;46042;49.444;6.862;2023-12-20T07:33:01;8.50;;;3.33;;
60169;SDS011;46042;49.444;6.862;2023-12-20T07:35:29;8.23;;;2.97;;
60169;SDS011;46042;49.444;6.862;2023-12-20T07:37:56;11.02;;;4.22;;
60169;SDS011;46042;49.444;6.862;2023-12-20T07:40:22;7.10;;;3.55;;
60169;SDS011;46042;49.444;6.862;2023-12-20T07:42:50;9.95;;;4.15;;
60169;SDS011;46042;49.444;6.862;2023-12-20T07:45:17;12.80;;;3.38;;
60169;SDS011;46042;49.444;6.862;2023-12-20T07:47:43;13.57;;;3.33;;
60169;SDS011;46042;49.444;6.862;2023-12-20T07:50:11;8.35;;;2.90;;
60169;SDS011;46042;49.444;6.862;2023-12-20T07:52:37;8.30;;;2.80;;
60169;SDS011;46042;49.444;6.862;2023-12-20T07:55:05;5.85;;;2.28;;
60169;SDS011;46042;49.444;6.862;2023-12-20T07:57:32;4.10;;;2.05;;
60169;SDS011;46042;49.444;6.862;2023-12-20T07:59:58;8.25;;;3.08;;
60169;SDS011;46042;49.444;6.862;2023-12-20T08:02:25;9.82;;;2.90;;
60169;SDS011;46042;49.444;6.862;2023-12-20T08:04:52;15.68;;;3.92;;
60169;SDS011;46042;49.444;6.862;2023-12-20T08:07:19;11.15;;;3.85;;
60169;SDS011;46042;49.444;6.862;2023-12-20T08:09:46;24.45;;;4.63;;
60169;SDS011;46042;49.444;6.862;2023-12-20T08:12:12;11.73;;;5.32;;
60169;SDS011;46042;49.444;6.862;2023-12-20T08:14:39;17.48;;;3.70;;
60169;SDS011;46042;49.444;6.862;2023-12-20T08:17:06;19.40;;;4.10;;
60169;SDS011;46042;49.444;6.862;2023-12-20T08:19:32;9.32;;;3.30;;
60169;SDS011;46042;49.444;6.862;2023-12-20T08:21:59;12.75;;;4.05;;
60169;SDS011;46042;49.444;6.862;2023-12-20T08:24:26;23.17;;;6.85;;
60169;SDS011;46042;49.444;6.862;2023-12-20T08:26:52;10.05;;;4.07;;
60169;SDS011;46042;49.444;6.862;2023-12-20T08:29:19;18.13;;;4.70;;
60169;SDS011;46042;49.444;6.862;2023-12-20T08:31:51;30.45;;;6.60;;
60169;SDS011;46042;49.444;6.862;2023-12-20T08:34:18;14.07;;;4.65;;
60169;SDS011;46042;49.444;6.862;2023-12-20T08:36:45;16.63;;;4.05;;
60169;SDS011;46042;49.444;6.862;2023-12-20T08:39:12;19.48;;;4.47;;
60169;SDS011;46042;49.444;6.862;2023-12-20T08:41:38;11.95;;;3.53;;
60169;SDS011;46042;49.444;6.862;2023-12-20T08:44:05;14.57;;;4.38;;
60169;SDS011;46042;49.444;6.862;2023-12-20T08:46:32;16.75;;;4.47;;
60169;SDS011;46042;49.444;6.862;2023-12-20T08:48:59;16.92;;;3.83;;
60169;SDS011;46042;49.444;6.862;2023-12-20T08:51:27;11.00;;;4.88;;
60169;SDS011;46042;49.444;6.862;2023-12-20T08:53:54;17.83;;;3.95;;
60169;SDS011;46042;49.444;6.862;2023-12-20T08:56:21;14.18;;;5.35;;
60169;SDS011;46042;49.444;6.862;2023-12-20T08:58:47;15.25;;;4.55;;
60169;SDS011;46042;49.444;6.862;2023-12-20T09:01:15;18.27;;;5.68;;
60169;SDS011;46042;49.444;6.862;2023-12-20T09:03:42;13.23;;;4.93;;
60169;SDS011;46042;49.444;6.862;2023-12-20T09:06:09;11.07;;;4.18;;
60169;SDS011;46042;49.444;6.862;2023-12-20T09:08:36;13.00;;;4.70;;
60169;SDS011;46042;49.444;6.862;2023-12-20T09:11:03;20.65;;;4.40;;
60169;SDS011;46042;49.444;6.862;2023-12-20T09:13:30;12.65;;;3.95;;
60169;SDS011;46042;49.444;6.862;2023-12-20T09:15:58;7.25;;;3.53;;
60169;SDS011;46042;49.444;6.862;2023-12-20T09:18:25;26.42;;;4.72;;
60169;SDS011;46042;49.444;6.862;2023-12-20T09:20:55;10.68;;;4.00;;
60169;SDS011;46042;49.444;6.862;2023-12-20T09:23:21;10.35;;;4.60;;
60169;SDS011;46042;49.444;6.862;2023-12-20T09:25:48;15.50;;;4.57;;
60169;SDS011;46042;49.444;6.862;2023-12-20T09:28:15;16.52;;;4.20;;
60169;SDS011;46042;49.444;6.862;2023-12-20T09:30:42;19.65;;;4.47;;
60169;SDS011;46042;49.444;6.862;2023-12-20T09:33:11;12.10;;;5.03;;
60169;SDS011;46042;49.444;6.862;2023-12-20T09:35:38;22.55;;;5.43;;
60169;SDS011;46042;49.444;6.862;2023-12-20T09:38:06;24.27;;;6.28;;
60169;SDS011;46042;49.444;6.862;2023-12-20T09:40:32;21.70;;;6.38;;
60169;SDS011;46042;49.444;6.862;2023-12-20T09:43:04;10.45;;;4.72;;
60169;SDS011;46042;49.444;6.862;2023-12-20T09:45:38;13.07;;;4.32;;
60169;SDS011;46042;49.444;6.862;2023-12-20T09:48:07;21.38;;;5.82;;
60169;SDS011;46042;49.444;6.862;2023-12-20T09:50:37;19.50;;;4.60;;
60169;SDS011;46042;49.444;6.862;2023-12-20T09:53:04;13.00;;;3.92;;
60169;SDS011;46042;49.444;6.862;2023-12-20T09:55:38;11.75;;;4.75;;
60169;SDS011;46042;49.444;6.862;2023-12-20T09:58:07;21.13;;;5.40;;
60169;SDS011;46042;49.444;6.862;2023-12-20T10:00:35;22.50;;;5.85;;
60169;SDS011;46042;49.444;6.862;2023-12-20T10:03:02;20.50;;;4.53;;
60169;SDS011;46042;49.444;6.862;2023-12-20T10:05:30;25.23;;;4.78;;
60169;SDS011;46042;49.444;6.862;2023-12-20T10:07:59;23.95;;;5.25;;
60169;SDS011;46042;49.444;6.862;2023-12-20T10:10:27;21.52;;;6.03;;
60169;SDS011;46042;49.444;6.862;2023-12-20T10:13:10;13.70;;;4.15;;
60169;SDS011;46042;49.444;6.862;2023-12-20T10:15:38;10.80;;;3.70;;
60169;SDS011;46042;49.444;6.862;2023-12-20T10:18:08;17.98;;;4.15;;
60169;SDS011;46042;49.444;6.862;2023-12-20T10:20:35;9.23;;;4.28;;
60169;SDS011;46042;49.444;6.862;2023-12-20T10:23:03;15.50;;;3.90;;
60169;SDS011;46042;49.444;6.862;2023-12-20T10:25:30;18.55;;;4.43;;
60169;SDS011;46042;49.444;6.862;2023-12-20T10:28:11;22.35;;;3.38;;
60169;SDS011;46042;49.444;6.862;2023-12-20T10:30:40;18.35;;;3.92;;
60169;SDS011;46042;49.444;6.862;2023-12-20T10:33:07;11.80;;;3.55;;
60169;SDS011;46042;49.444;6.862;2023-12-20T10:35:35;13.50;;;4.05;;
60169;SDS011;46042;49.444;6.862;2023-12-20T10:38:04;8.93;;;4.05;;
60169;SDS011;46042;49.444;6.862;2023-12-20T10:40:35;18.48;;;3.63;;
60169;SDS011;46042;49.444;6.862;2023-12-20T10:43:05;7.53;;;3.22;;
60169;SDS011;46042;49.444;6.862;2023-12-20T10:45:32;20.73;;;4.32;;
60169;SDS011;46042;49.444;6.862;2023-12-20T10:48:01;17.33;;;3.80;;
60169;SDS011;46042;49.444;6.862;2023-12-20T10:50:29;7.65;;;2.95;;
60169;SDS011;46042;49.444;6.862;2023-12-20T10:52:57;14.10;;;4.18;;
60169;SDS011;46042;49.444;6.862;2023-12-20T10:55:25;15.93;;;3.42;;
60169;SDS011;46042;49.444;6.862;2023-12-20T11:00:50;18.23;;;3.75;;
60169;SDS011;46042;49.444;6.862;2023-12-20T11:03:26;15.02;;;3.35;;
60169;SDS011;46042;49.444;6.862;2023-12-20T11:06:00;18.20;;;3.40;;
60169;SDS011;46042;49.444;6.862;2023-12-20T11:11:12;9.40;;;3.45;;
60169;SDS011;46042;49.444;6.862;2023-12-20T11:17:05;13.38;;;3.03;;
60169;SDS011;46042;49.444;6.862;2023-12-20T11:19:32;8.80;;;3.47;;
60169;SDS011;46042;49.444;6.862;2023-12-20T11:22:03;7.07;;;3.05;;
60169;SDS011;46042;49.444;6.862;2023-12-20T11:24:31;12.32;;;2.67;;
60169;SDS011;46042;49.444;6.862;2023-12-20T11:27:00;11.18;;;3.78;;
60169;SDS011;46042;49.444;6.862;2023-12-20T11:29:36;13.48;;;2.90;;
60169;SDS011;46042;49.444;6.862;2023-12-20T11:32:04;11.48;;;3.80;;
60169;SDS011;46042;49.444;6.862;2023-12-20T11:34:50;21.98;;;3.67;;
60169;SDS011;46042;49.444;6.862;2023-12-20T11:37:20;8.90;;;3.97;;
60169;SDS011;46042;49.444;6.862;2023-12-20T11:39:56;10.45;;;3.03;;
60169;SDS011;46042;49.444;6.862;2023-12-20T11:42:28;8.20;;;3.15;;
60169;SDS011;46042;49.444;6.862;2023-12-20T11:45:13;14.80;;;2.88;;
60169;SDS011;46042;49.444;6.862;2023-12-20T11:47:49;15.05;;;3.47;;
60169;SDS011;46042;49.444;6.862;2023-12-20T11:50:18;7.10;;;2.78;;
60169;SDS011;46042;49.444;6.862;2023-12-20T11:52:45;14.18;;;3.25;;
60169;SDS011;46042;49.444;6.862;2023-12-20T11:55:12;24.77;;;3.67;;
60169;SDS011;46042;49.444;6.862;2023-12-20T11:57:39;14.63;;;3.38;;
60169;SDS011;46042;49.444;6.862;2023-12-20T12:00:06;12.13;;;2.95;;
60169;SDS011;46042;49.444;6.862;2023-12-20T12:02:33;15.82;;;3.70;;
60169;SDS011;46042;49.444;6.862;2023-12-20T12:05:00;18.65;;;2.83;;
60169;SDS011;46042;49.444;6.862;2023-12-20T12:07:27;13.23;;;3.03;;
60169;SDS011;46042;49.444;6.862;2023-12-20T12:09:53;6.50;;;2.83;;
60169;SDS011;46042;49.444;6.862;2023-12-20T12:12:20;6.22;;;2.22;;
60169;SDS011;46042;49.444;6.862;2023-12-20T12:14:47;16.65;;;3.03;;
60169;SDS011;46042;49.444;6.862;2023-12-20T12:17:14;14.98;;;3.83;;
60169;SDS011;46042;49.444;6.862;2023-12-20T12:19:41;24.00;;;3.33;;
60169;SDS011;46042;49.444;6.862;2023-12-20T12:22:09;9.77;;;4.13;;
60169;SDS011;46042;49.444;6.862;2023-12-20T12:24:45;6.22;;;2.33;;
60169;SDS011;46042;49.444;6.862;2023-12-20T12:27:13;8.35;;;2.72;;
60169;SDS011;46042;49.444;6.862;2023-12-20T12:29:40;15.07;;;2.80;;
60169;SDS011;46042;49.444;6.862;2023-12-20T12:32:07;13.38;;;3.80;;
60169;SDS011;46042;49.444;6.862;2023-12-20T12:34:36;12.27;;;4.60;;
60169;SDS011;46042;49.444;6.862;2023-12-20T12:37:06;17.08;;;4.30;;
60169;SDS011;46042;49.444;6.862;2023-12-20T12:39:33;15.90;;;3.63;;
60169;SDS011;46042;49.444;6.862;2023-12-20T12:42:00;18.25;;;4.65;;
60169;SDS011;46042;49.444;6.862;2023-12-20T12:44:27;10.75;;;3.25;;
60169;SDS011;46042;49.444;6.862;2023-12-20T12:46:53;9.05;;;2.88;;
60169;SDS011;46042;49.444;6.862;2023-12-20T12:49:20;11.32;;;3.42;;
60169;SDS011;46042;49.444;6.862;2023-12-20T12:51:48;14.10;;;5.82;;
60169;SDS011;46042;49.444;6.862;2023-12-20T12:54:15;16.85;;;4.10;;
60169;SDS011;46042;49.444;6.862;2023-12-20T12:56:43;12.93;;;3.47;;
60169;SDS011;46042;49.444;6.862;2023-12-20T12:59:10;23.15;;;5.80;;
60169;SDS011;46042;49.444;6.862;2023-12-20T13:01:37;16.00;;;6.72;;
60169;SDS011;46042;49.444;6.862;2023-12-20T13:04:05;23.70;;;4.93;;
60169;SDS011;46042;49.444;6.862;2023-12-20T13:06:37;25.05;;;9.30;;
60169;SDS011;46042;49.444;6.862;2023-12-20T13:09:05;17.98;;;4.75;;
60169;SDS011;46042;49.444;6.862;2023-12-20T13:11:32;13.98;;;3.42;;
60169;SDS011;46042;49.444;6.862;2023-12-20T13:13:59;16.50;;;4.35;;
60169;SDS011;46042;49.444;6.862;2023-12-20T13:16:26;19.55;;;4.60;;
60169;SDS011;46042;49.444;6.862;2023-12-20T13:18:53;10.95;;;3.35;;
60169;SDS011;46042;49.444;6.862;2023-12-20T13:21:20;11.45;;;3.67;;
60169;SDS011;46042;49.444;6.862;2023-12-20T13:23:47;15.52;;;4.68;;
60169;SDS011;46042;49.444;6.862;2023-12-20T13:26:14;20.83;;;3.95;;
60169;SDS011;46042;49.444;6.862;2023-12-20T13:28:40;16.73;;;4.30;;
60169;SDS011;46042;49.444;6.862;2023-12-20T13:31:08;15.55;;;4.53;;
60169;SDS011;46042;49.444;6.862;2023-12-20T13:33:35;10.48;;;3.85;;
60169;SDS011;46042;49.444;6.862;2023-12-20T13:36:01;9.43;;;3.55;;
60169;SDS011;46042;49.444;6.862;2023-12-20T13:38:32;12.63;;;3.42;;
60169;SDS011;46042;49.444;6.862;2023-12-20T13:40:59;16.17;;;4.55;;
60169;SDS011;46042;49.444;6.862;2023-12-20T13:43:26;29.20;;;5.93;;
60169;SDS011;46042;49.444;6.862;2023-12-20T13:45:52;8.77;;;3.13;;
60169;SDS011;46042;49.444;6.862;2023-12-20T13:48:19;15.27;;;3.63;;
60169;SDS011;46042;49.444;6.862;2023-12-20T13:50:46;11.70;;;2.80;;
60169;SDS011;46042;49.444;6.862;2023-12-20T13:53:13;11.90;;;3.45;;
60169;SDS011;46042;49.444;6.862;2023-12-20T13:55:40;10.07;;;2.72;;
60169;SDS011;46042;49.444;6.862;2023-12-20T13:58:07;14.05;;;3.75;;
60169;SDS011;46042;49.444;6.862;2023-12-20T14:00:33;10.00;;;3.80;;
60169;SDS011;46042;49.444;6.862;2023-12-20T14:03:00;13.02;;;3.20;;
60169;SDS011;46042;49.444;6.862;2023-12-20T14:05:28;16.25;;;3.80;;
60169;SDS011;46042;49.444;6.862;2023-12-20T14:07:55;10.45;;;2.63;;
60169;SDS011;46042;49.444;6.862;2023-12-20T14:10:25;23.45;;;3.83;;
60169;SDS011;46042;49.444;6.862;2023-12-20T14:12:53;9.45;;;2.90;;
60169;SDS011;46042;49.444;6.862;2023-12-20T14:15:21;17.75;;;3.38;;
60169;SDS011;46042;49.444;6.862;2023-12-20T14:17:51;6.30;;;2.47;;
60169;SDS011;46042;49.444;6.862;2023-12-20T14:20:19;27.38;;;5.10;;
60169;SDS011;46042;49.444;6.862;2023-12-20T14:22:46;11.43;;;3.90;;
60169;SDS011;46042;49.444;6.862;2023-12-20T14:25:13;18.95;;;3.50;;
60169;SDS011;46042;49.444;6.862;2023-12-20T14:27:41;16.98;;;3.75;;
60169;SDS011;46042;49.444;6.862;2023-12-20T14:30:12;13.25;;;3.72;;
60169;SDS011;46042;49.444;6.862;2023-12-20T14:32:58;22.60;;;5.20;;
60169;SDS011;46042;49.444;6.862;2023-12-20T14:35:25;19.48;;;3.83;;
60169;SDS011;46042;49.444;6.862;2023-12-20T14:37:52;12.82;;;3.97;;
60169;SDS011;46042;49.444;6.862;2023-12-20T14:40:19;20.05;;;3.85;;
60169;SDS011;46042;49.444;6.862;2023-12-20T14:42:46;16.17;;;2.80;;
60169;SDS011;46042;49.444;6.862;2023-12-20T14:45:13;17.15;;;2.65;;
60169;SDS011;46042;49.444;6.862;2023-12-20T14:47:40;10.25;;;2.90;;
60169;SDS011;46042;49.444;6.862;2023-12-20T14:50:07;9.40;;;3.10;;
60169;SDS011;46042;49.444;6.862;2023-12-20T14:52:35;9.98;;;2.83;;